Time;durP1;ratioP1;P1;durP2;ratioP2;P2;SDS_P1;SDS_P2;PMS_P1;PMS_P2;Temp;Humidity;BMP_temperature;BMP_pressure;BME280_temperature;BME280_humidity;BME280_pressure;Samples;Min_cycle;Max_cycle;Signal;HPM_P1;HPM_P2
2023/12/25 00:01:38;;;;;;;1.50;0.40;;;;;;;9.72;100.00;99189.78;5071895;28;20429;-70
2023/12/25 00:04:05;;;;;;;1.50;0.40;;;;;;;9.75;100.00;99197.25;5057398;28;20540;-70
2023/12/25 00:06:31;;;;;;;1.50;0.40;;;;;;;9.73;100.00;99180.56;5065471;28;20448;-70
2023/12/25 00:08:58;;;;;;;1.50;0.40;;;;;;;9.70;100.00;99180.44;5073441;28;20473;-70
2023/12/25 00:11:26;;;;;;;1.43;0.30;;;;;;;9.68;100.00;99169.94;5073416;28;20491;-70
2023/12/25 00:13:54;;;;;;;1.60;0.50;;;;;;;9.67;100.00;99179.19;5071876;28;20454;-70
2023/12/25 00:16:24;;;;;;;1.50;0.30;;;;;;;9.68;100.00;99183.47;5071360;28;20429;-70
2023/12/25 00:18:51;;;;;;;1.50;0.40;;;;;;;9.65;100.00;99189.53;5071713;28;20441;-70
2023/12/25 00:21:17;;;;;;;1.90;0.50;;;;;;;9.63;100.00;99189.06;5072013;28;20481;-70
2023/12/25 00:23:44;;;;;;;1.77;0.40;;;;;;;9.60;100.00;99195.13;5072065;28;21916;-70
2023/12/25 00:26:11;;;;;;;1.77;0.50;;;;;;;9.57;100.00;99209.31;5063846;28;20919;-70
2023/12/25 00:28:39;;;;;;;2.33;0.40;;;;;;;9.57;100.00;99195.81;5062604;28;20441;-70
2023/12/25 00:31:06;;;;;;;1.50;0.40;;;;;;;9.58;100.00;99200.09;5062401;28;20440;-70
2023/12/25 00:33:32;;;;;;;1.70;0.50;;;;;;;9.57;100.00;99198.50;5067124;28;20442;-71
2023/12/25 00:35:59;;;;;;;1.50;0.40;;;;;;;9.63;100.00;99194.47;5071140;28;20508;-71
2023/12/25 00:38:26;;;;;;;1.60;0.43;;;;;;;9.68;100.00;99186.16;5065678;28;20441;-71
2023/12/25 00:40:52;;;;;;;1.50;0.40;;;;;;;9.70;100.00;99197.47;5063220;28;20481;-71
2023/12/25 00:43:19;;;;;;;1.60;0.43;;;;;;;9.78;100.00;99202.00;5062141;28;20433;-71
2023/12/25 00:45:47;;;;;;;1.50;0.30;;;;;;;9.78;100.00;99202.00;5064050;28;20457;-71
2023/12/25 00:48:13;;;;;;;1.50;0.40;;;;;;;9.77;100.00;99205.81;5064698;28;20852;-70
2023/12/25 00:50:40;;;;;;;1.60;0.40;;;;;;;9.82;100.00;99213.72;5058209;28;20577;-70
2023/12/25 00:53:07;;;;;;;1.50;0.40;;;;;;;9.81;100.00;99203.25;5062304;28;20461;-70
2023/12/25 00:55:33;;;;;;;1.60;0.40;;;;;;;9.82;100.00;99200.22;5061413;28;20550;-72
2023/12/25 00:58:00;;;;;;;1.60;0.43;;;;;;;9.90;100.00;99195.06;5063704;28;20446;-71
2023/12/25 01:00:26;;;;;;;1.50;0.30;;;;;;;9.96;100.00;99209.97;5067550;28;20507;-72
2023/12/25 01:02:54;;;;;;;1.50;0.40;;;;;;;10.01;100.00;99216.00;5074429;28;20444;-72
2023/12/25 01:05:21;;;;;;;2.07;0.57;;;;;;;10.06;100.00;99215.00;5074377;28;20984;-71
2023/12/25 01:07:48;;;;;;;1.60;0.43;;;;;;;10.00;100.00;99217.09;5073095;28;20445;-72
2023/12/25 01:10:14;;;;;;;1.50;0.40;;;;;;;9.96;100.00;99213.50;5062763;28;20491;-72
2023/12/25 01:12:41;;;;;;;1.50;0.30;;;;;;;9.97;100.00;99228.59;5066422;28;20437;-72
2023/12/25 01:15:08;;;;;;;1.57;0.40;;;;;;;9.92;100.00;99219.88;5072761;28;20460;-72
2023/12/25 01:17:35;;;;;;;1.50;0.30;;;;;;;9.98;100.00;99215.84;5069502;28;20445;-72
2023/12/25 01:20:03;;;;;;;1.60;0.50;;;;;;;10.04;100.00;99225.34;5063702;28;20484;-72
2023/12/25 01:22:30;;;;;;;1.50;0.40;;;;;;;10.05;100.00;99226.94;5064964;28;20433;-72
2023/12/25 01:24:56;;;;;;;1.60;0.40;;;;;;;10.05;100.00;99221.53;5071089;28;20457;-72
2023/12/25 01:27:23;;;;;;;1.60;0.50;;;;;;;10.06;100.00;99231.22;5068632;28;20438;-72
2023/12/25 01:29:50;;;;;;;4.27;0.70;;;;;;;10.09;100.00;99220.53;5066568;28;21000;-72
2023/12/25 01:32:16;;;;;;;1.77;0.50;;;;;;;10.07;100.00;99213.88;5071860;28;20465;-71
2023/12/25 01:34:43;;;;;;;1.50;0.40;;;;;;;10.07;100.00;99198.41;5063612;28;20458;-72
2023/12/25 01:37:11;;;;;;;1.53;0.40;;;;;;;10.08;100.00;99196.50;5068070;28;20433;-72
2023/12/25 01:39:37;;;;;;;2.33;0.40;;;;;;;10.10;100.00;99205.09;5074941;28;20475;-71
2023/12/25 01:42:04;;;;;;;1.53;0.40;;;;;;;10.11;100.00;99215.56;5059431;28;20445;-72
2023/12/25 01:44:31;;;;;;;1.50;0.40;;;;;;;10.09;100.00;99212.44;5068096;28;20457;-71
2023/12/25 01:46:58;;;;;;;1.60;0.43;;;;;;;10.14;100.00;99216.84;5066828;28;20823;-71
2023/12/25 01:49:25;;;;;;;1.60;0.50;;;;;;;10.15;100.00;99221.13;5063424;28;20452;-71
2023/12/25 01:51:52;;;;;;;1.60;0.40;;;;;;;10.10;100.00;99224.03;5069860;28;20469;-71
2023/12/25 01:54:20;;;;;;;1.60;0.50;;;;;;;10.13;100.00;99228.75;5072018;28;20536;-71
2023/12/25 01:56:47;;;;;;;1.53;0.40;;;;;;;10.16;100.00;99225.41;5070141;28;20520;-71
2023/12/25 01:59:14;;;;;;;1.60;0.40;;;;;;;10.19;100.00;99226.66;5066008;28;20454;-71
2023/12/25 02:01:40;;;;;;;2.43;0.70;;;;;;;10.21;100.00;99227.13;5067704;28;20488;-71
2023/12/25 02:04:07;;;;;;;1.70;0.43;;;;;;;10.24;100.00;99221.88;5072836;28;21010;-70
2023/12/25 02:06:35;;;;;;;2.30;0.60;;;;;;;10.31;100.00;99221.31;5071183;28;20897;-69
2023/12/25 02:09:03;;;;;;;1.60;0.40;;;;;;;10.38;100.00;99221.59;5067004;28;20438;-69
2023/12/25 02:11:31;;;;;;;2.37;0.60;;;;;;;10.38;100.00;99235.13;5070264;28;20996;-69
2023/12/25 02:13:59;;;;;;;1.80;0.60;;;;;;;10.43;100.00;99228.69;5066085;28;20462;-69
2023/12/25 02:16:26;;;;;;;1.70;0.40;;;;;;;10.50;100.00;99228.97;5063125;28;21023;-69
2023/12/25 02:18:53;;;;;;;9.60;1.27;;;;;;;10.55;100.00;99216.00;5066914;28;20441;-68
2023/12/25 02:21:20;;;;;;;1.73;0.50;;;;;;;10.58;100.00;99214.53;5068852;28;20485;-68
2023/12/25 02:23:48;;;;;;;1.90;0.60;;;;;;;10.56;100.00;99201.31;5063609;28;20461;-68
2023/12/25 02:26:17;;;;;;;1.60;0.40;;;;;;;10.63;100.00;99208.91;5065579;28;20878;-68
2023/12/25 02:28:43;;;;;;;1.70;0.50;;;;;;;10.64;100.00;99226.75;5071552;28;20503;-68
2023/12/25 02:31:11;;;;;;;1.60;0.40;;;;;;;10.68;100.00;99224.16;5070151;28;20434;-68
2023/12/25 02:33:37;;;;;;;1.60;0.50;;;;;;;10.72;100.00;99223.16;5063382;28;20533;-68
2023/12/25 02:36:05;;;;;;;2.07;0.57;;;;;;;10.74;100.00;99212.75;5063943;28;20858;-68
2023/12/25 02:38:32;;;;;;;1.60;0.40;;;;;;;10.75;100.00;99219.75;5062787;28;20536;-69
2023/12/25 02:40:58;;;;;;;2.63;0.63;;;;;;;10.71;100.00;99218.84;5067085;28;20489;-68
2023/12/25 02:43:26;;;;;;;1.63;0.47;;;;;;;10.68;100.00;99219.53;5064343;28;20466;-68
2023/12/25 02:45:53;;;;;;;1.60;0.40;;;;;;;10.64;100.00;99237.56;5064945;28;20442;-68
2023/12/25 02:48:20;;;;;;;2.20;0.60;;;;;;;10.53;100.00;99247.22;5066809;28;20470;-68
2023/12/25 02:50:46;;;;;;;1.60;0.50;;;;;;;10.65;100.00;99231.03;5068936;28;21007;-68
2023/12/25 02:53:13;;;;;;;1.70;0.50;;;;;;;10.63;100.00;99227.88;5066686;28;20518;-68
2023/12/25 02:55:39;;;;;;;1.70;0.40;;;;;;;10.63;100.00;99238.69;5062190;28;20475;-68
2023/12/25 02:58:06;;;;;;;2.13;0.60;;;;;;;10.54;100.00;99244.19;5062029;28;20440;-69
2023/12/25 03:00:34;;;;;;;1.70;0.50;;;;;;;10.48;100.00;99247.44;5077264;28;20571;-70
2023/12/25 03:03:01;;;;;;;1.50;0.40;;;;;;;10.53;100.00;99247.22;5066400;28;20537;-68
2023/12/25 03:05:27;;;;;;;1.73;0.50;;;;;;;10.53;100.00;99258.06;5064117;28;20457;-69
2023/12/25 03:07:54;;;;;;;1.60;0.43;;;;;;;10.52;100.00;99246.44;5062902;28;20800;-68
2023/12/25 03:10:21;;;;;;;1.60;0.40;;;;;;;10.51;100.00;99244.06;5067819;28;20434;-68
2023/12/25 03:12:47;;;;;;;2.13;0.67;;;;;;;10.47;100.00;99243.94;5068214;28;20860;-68
2023/12/25 03:15:14;;;;;;;1.70;0.50;;;;;;;10.45;100.00;99264.38;5061282;28;20458;-68
2023/12/25 03:17:42;;;;;;;1.70;0.40;;;;;;;10.34;100.00;99245.03;5070657;28;20444;-69
2023/12/25 03:20:09;;;;;;;1.60;0.40;;;;;;;10.27;100.00;99244.75;5064639;28;20445;-69
2023/12/25 03:22:35;;;;;;;1.70;0.43;;;;;;;10.25;100.00;99241.59;5061950;28;20442;-69
2023/12/25 03:25:02;;;;;;;2.60;0.50;;;;;;;10.23;100.00;99252.75;5057185;28;20549;-69
2023/12/25 03:27:28;;;;;;;1.60;0.50;;;;;;;10.10;100.00;99248.38;5069159;28;20210;-69
2023/12/25 03:29:55;;;;;;;1.60;0.50;;;;;;;10.10;100.00;99245.69;5065801;28;20453;-69
2023/12/25 03:32:21;;;;;;;1.50;0.40;;;;;;;10.04;100.00;99253.19;5063934;28;20442;-69
2023/12/25 03:34:50;;;;;;;2.27;0.60;;;;;;;10.03;100.00;99245.41;5062654;28;20456;-69
2023/12/25 03:37:17;;;;;;;1.60;0.40;;;;;;;10.00;100.00;99243.34;5062987;28;20442;-69
2023/12/25 03:39:43;;;;;;;1.90;0.67;;;;;;;9.99;100.00;99255.31;5063730;28;20516;-69
2023/12/25 03:42:10;;;;;;;1.50;0.40;;;;;;;9.97;100.00;99260.25;5069030;28;20484;-69
2023/12/25 03:44:37;;;;;;;1.80;0.43;;;;;;;9.96;100.00;99256.78;5058304;28;20988;-68
2023/12/25 03:47:04;;;;;;;1.60;0.47;;;;;;;10.00;100.00;99256.88;5072584;28;20429;-68
2023/12/25 03:49:30;;;;;;;1.50;0.40;;;;;;;9.97;100.00;99260.25;5067761;28;20451;-69
2023/12/25 03:51:59;;;;;;;1.50;0.40;;;;;;;10.04;100.00;99265.91;5066786;28;20436;-68
2023/12/25 03:54:25;;;;;;;1.67;0.43;;;;;;;9.99;100.00;99256.09;5069329;28;20544;-68
2023/12/25 03:56:52;;;;;;;1.70;0.63;;;;;;;9.94;100.00;99258.22;5067643;28;22009;-69
2023/12/25 03:59:18;;;;;;;1.50;0.40;;;;;;;9.93;100.00;99256.63;5072566;28;20524;-69
2023/12/25 04:01:45;;;;;;;3.70;0.67;;;;;;;10.02;100.00;99251.94;5064005;28;21011;-68
2023/12/25 04:04:12;;;;;;;2.90;0.60;;;;;;;9.98;100.00;99253.72;5064373;28;20453;-69
2023/12/25 04:06:38;;;;;;;1.60;0.40;;;;;;;9.93;100.00;99253.94;5062629;28;20455;-68
2023/12/25 04:09:06;;;;;;;1.90;0.63;;;;;;;9.95;100.00;99257.88;5066790;28;20913;-68
2023/12/25 04:11:33;;;;;;;1.80;0.50;;;;;;;10.02;100.00;99251.94;5071856;28;20457;-69
2023/12/25 04:14:00;;;;;;;1.53;0.43;;;;;;;10.04;100.00;99274.03;5070254;28;20985;-68
2023/12/25 04:16:28;;;;;;;1.60;0.50;;;;;;;10.03;100.00;99256.22;5071423;28;20521;-68
2023/12/25 04:18:55;;;;;;;3.07;1.00;;;;;;;10.06;100.00;99250.16;5072413;28;20969;-68
2023/12/25 04:21:23;;;;;;;1.67;0.50;;;;;;;10.13;100.00;99255.81;5068348;28;21043;-68
2023/12/25 04:23:51;;;;;;;6.50;0.50;;;;;;;10.21;100.00;99249.56;5070032;28;20488;-68
2023/12/25 04:26:19;;;;;;;1.50;0.43;;;;;;;10.24;100.00;99248.94;5062186;28;20430;-68
2023/12/25 04:28:46;;;;;;;1.50;0.40;;;;;;;10.29;100.00;99240.59;5061789;28;20418;-68
2023/12/25 04:31:13;;;;;;;2.37;0.87;;;;;;;10.35;100.00;99249.31;5065647;28;21928;-71
2023/12/25 04:33:40;;;;;;;1.60;0.50;;;;;;;10.39;100.00;99235.91;5061000;28;20434;-69
2023/12/25 04:36:07;;;;;;;2.27;0.90;;;;;;;10.41;100.00;99234.47;5067923;28;20441;-69
2023/12/25 04:38:34;;;;;;;2.00;0.40;;;;;;;10.50;100.00;99242.50;5071887;28;20434;-72
2023/12/25 04:41:00;;;;;;;2.10;0.53;;;;;;;10.56;100.00;99246.56;5074957;28;20994;-70
2023/12/25 04:43:28;;;;;;;1.60;0.40;;;;;;;10.59;100.00;99252.13;5076516;28;20441;-70
2023/12/25 04:45:55;;;;;;;2.10;0.67;;;;;;;10.55;100.00;99267.44;5069554;28;21037;-70
2023/12/25 04:48:22;;;;;;;2.03;0.63;;;;;;;10.63;100.00;99251.44;5071534;28;20808;-70
2023/12/25 04:50:48;;;;;;;4.33;1.17;;;;;;;10.56;100.00;99254.69;5070378;28;20510;-70
2023/12/25 04:53:15;;;;;;;1.60;0.60;;;;;;;10.56;100.00;99246.56;5065813;28;20456;-70
2023/12/25 04:55:42;;;;;;;2.13;0.63;;;;;;;10.55;100.00;99253.13;5069737;28;21036;-70
2023/12/25 04:58:09;;;;;;;1.90;0.63;;;;;;;10.51;100.00;99252.19;5072854;28;20437;-70
2023/12/25 05:00:37;;;;;;;1.60;0.40;;;;;;;10.56;100.00;99251.97;5075291;28;20489;-70
2023/12/25 05:03:04;;;;;;;1.50;0.40;;;;;;;10.65;100.00;99255.41;5062717;28;20965;-70
2023/12/25 05:05:31;;;;;;;1.50;0.40;;;;;;;10.67;100.00;99255.06;5075023;28;20964;-70
2023/12/25 05:07:57;;;;;;;1.80;0.50;;;;;;;10.62;100.00;99250.63;5072408;28;20445;-70
2023/12/25 05:10:24;;;;;;;2.97;0.50;;;;;;;10.66;100.00;99256.19;5075884;28;20469;-71
2023/12/25 05:12:50;;;;;;;1.70;0.50;;;;;;;10.69;100.00;99252.81;5074604;28;20429;-70
2023/12/25 05:15:17;;;;;;;2.53;0.50;;;;;;;10.65;100.00;99249.19;5070474;28;20497;-70
2023/12/25 05:17:45;;;;;;;1.80;0.80;;;;;;;10.71;100.00;99258.69;5068407;28;20484;-70
2023/12/25 05:20:12;;;;;;;2.27;0.73;;;;;;;10.67;100.00;99253.16;5067479;28;20949;-71
2023/12/25 05:22:38;;;;;;;2.43;0.70;;;;;;;10.68;100.00;99270.19;5073986;28;20481;-71
2023/12/25 05:25:06;;;;;;;1.73;0.50;;;;;;;10.77;100.00;99258.16;5068760;28;20528;-71
2023/12/25 05:27:33;;;;;;;2.43;0.50;;;;;;;10.80;100.00;99251.25;5063891;28;20474;-70
2023/12/25 05:30:00;;;;;;;1.90;0.60;;;;;;;10.77;100.00;99263.56;5063762;28;20812;-71
2023/12/25 05:32:28;;;;;;;1.97;0.67;;;;;;;10.82;100.00;99259.84;5074056;28;20700;-71
2023/12/25 05:34:56;;;;;;;1.90;0.70;;;;;;;10.95;100.00;99268.78;5067452;28;20520;-70
2023/12/25 05:37:23;;;;;;;3.10;0.70;;;;;;;10.93;100.00;99265.63;5068558;28;20447;-71
2023/12/25 05:39:49;;;;;;;1.67;0.57;;;;;;;11.00;100.00;99282.91;5066633;28;20444;-70
2023/12/25 05:42:16;;;;;;;2.27;0.50;;;;;;;11.01;100.00;99275.56;5074582;28;20473;-70
2023/12/25 05:44:43;;;;;;;1.60;0.40;;;;;;;10.94;100.00;99280.75;5072407;28;20485;-70
2023/12/25 05:47:09;;;;;;;1.90;0.83;;;;;;;10.99;100.00;99285.97;5075615;28;20867;-70
2023/12/25 05:49:36;;;;;;;1.90;0.70;;;;;;;10.97;100.00;99294.41;5068906;28;20949;-70
2023/12/25 05:52:04;;;;;;;1.70;0.50;;;;;;;10.99;100.00;99280.53;5066031;28;20427;-70
2023/12/25 05:54:31;;;;;;;4.17;0.73;;;;;;;11.09;100.00;99297.16;5070122;28;20532;-70
2023/12/25 05:56:58;;;;;;;1.60;0.40;;;;;;;11.12;100.00;99287.56;5074553;28;20445;-69
2023/12/25 05:59:25;;;;;;;2.90;0.73;;;;;;;11.08;100.00;99283.94;5072926;28;20457;-70
2023/12/25 06:01:52;;;;;;;5.80;0.70;;;;;;;11.15;100.00;99277.97;5072020;28;20572;-69
2023/12/25 06:04:19;;;;;;;2.20;0.70;;;;;;;11.13;100.00;99258.53;5075191;28;20460;-69
2023/12/25 06:06:46;;;;;;;1.80;0.50;;;;;;;11.11;100.00;99267.81;5066159;28;20470;-70
2023/12/25 06:09:14;;;;;;;1.80;0.53;;;;;;;11.07;100.00;99280.44;5070980;28;20525;-69
2023/12/25 06:11:40;;;;;;;2.10;0.97;;;;;;;11.05;100.00;99279.19;5072683;28;20436;-69
2023/12/25 06:14:07;;;;;;;1.60;0.50;;;;;;;11.11;100.00;99283.25;5075038;28;20500;-69
2023/12/25 06:16:34;;;;;;;1.63;0.53;;;;;;;11.18;100.00;99290.84;5072411;28;20440;-69
2023/12/25 06:19:01;;;;;;;2.43;1.10;;;;;;;11.23;100.00;99280.56;5072613;28;20832;-69
2023/12/25 06:21:28;;;;;;;1.60;0.50;;;;;;;11.27;100.00;99297.75;5069097;28;20886;-69
2023/12/25 06:23:54;;;;;;;2.33;0.40;;;;;;;11.23;100.00;99291.41;5074598;28;20580;-69
2023/12/25 06:26:23;;;;;;;1.70;0.50;;;;;;;11.18;100.00;99297.06;5071148;28;20429;-70
2023/12/25 06:28:50;;;;;;;3.53;0.73;;;;;;;11.16;100.00;99309.38;5075229;28;20956;-68
2023/12/25 06:31:16;;;;;;;1.60;0.50;;;;;;;11.25;100.00;99318.19;5069935;28;20428;-69
2023/12/25 06:33:43;;;;;;;3.07;0.73;;;;;;;11.19;100.00;99323.03;5069096;28;20430;-69
2023/12/25 06:36:09;;;;;;;1.50;0.40;;;;;;;11.24;100.00;99309.25;5065199;28;20810;-69
2023/12/25 06:38:36;;;;;;;1.90;0.60;;;;;;;11.18;100.00;99315.25;5072421;28;20426;-72
2023/12/25 06:41:03;;;;;;;2.60;0.57;;;;;;;11.25;100.00;99334.47;5073227;28;20440;-69
2023/12/25 06:43:31;;;;;;;1.60;0.47;;;;;;;11.26;100.00;99334.13;5069878;28;20440;-69
2023/12/25 06:45:58;;;;;;;2.90;0.80;;;;;;;11.23;100.00;99351.03;5069797;28;20529;-69
2023/12/25 06:48:25;;;;;;;1.80;0.60;;;;;;;11.25;100.00;99359.66;5071761;28;20525;-69
2023/12/25 06:50:51;;;;;;;1.90;0.60;;;;;;;11.34;100.00;99375.81;5071033;28;20458;-70
2023/12/25 06:53:18;;;;;;;3.20;0.63;;;;;;;11.31;100.00;99374.56;5074343;28;20466;-70
2023/12/25 06:55:45;;;;;;;1.60;0.50;;;;;;;11.28;100.00;99364.38;5071137;28;20461;-69
2023/12/25 06:58:11;;;;;;;3.20;0.80;;;;;;;11.28;100.00;99369.78;5064783;28;20461;-69
2023/12/25 07:00:39;;;;;;;2.27;0.70;;;;;;;11.26;99.98;99376.69;5071981;28;20426;-69
2023/12/25 07:03:06;;;;;;;1.60;0.40;;;;;;;11.20;99.79;99356.34;5060639;28;20481;-69
2023/12/25 07:05:33;;;;;;;1.67;0.40;;;;;;;11.19;99.71;99360.97;5073180;28;20813;-69
2023/12/25 07:08:00;;;;;;;1.90;0.60;;;;;;;11.15;100.00;99365.47;5076238;28;20569;-69
2023/12/25 07:10:27;;;;;;;2.10;0.60;;;;;;;11.17;99.55;99378.72;5078330;28;20461;-69
2023/12/25 07:12:53;;;;;;;2.27;0.50;;;;;;;11.21;97.68;99375.00;5069977;28;20509;-69
2023/12/25 07:15:20;;;;;;;1.70;0.57;;;;;;;11.14;98.07;99388.28;5071407;28;20463;-69
2023/12/25 07:17:48;;;;;;;1.80;0.60;;;;;;;11.11;97.56;99399.78;5073679;28;20508;-69
2023/12/25 07:20:15;;;;;;;3.80;0.53;;;;;;;11.03;99.17;99395.25;5069379;28;20525;-69
2023/12/25 07:22:41;;;;;;;1.60;0.40;;;;;;;11.08;98.00;99390.41;5075165;28;20568;-69
2023/12/25 07:25:09;;;;;;;2.53;0.77;;;;;;;11.03;98.23;99389.84;5049043;28;20472;-69
2023/12/25 07:27:36;;;;;;;1.80;0.53;;;;;;;11.02;98.50;99412.63;5071001;28;20442;-69
2023/12/25 07:30:04;;;;;;;1.97;0.63;;;;;;;10.93;99.06;99418.13;5088441;28;20965;-69
2023/12/25 07:32:30;;;;;;;1.73;0.53;;;;;;;10.86;98.00;99410.53;5064700;28;20485;-69
2023/12/25 07:34:58;;;;;;;2.03;0.50;;;;;;;10.91;97.45;99422.31;5080204;28;20539;-68
2023/12/25 07:37:25;;;;;;;1.60;0.47;;;;;;;10.97;96.41;99418.25;5062195;28;20469;-68
2023/12/25 07:39:51;;;;;;;1.60;0.40;;;;;;;11.03;95.62;99417.72;5067355;28;20512;-68
2023/12/25 07:42:18;;;;;;;1.83;0.50;;;;;;;11.05;94.56;99425.50;5062824;28;20489;-69
2023/12/25 07:44:47;;;;;;;2.50;0.70;;;;;;;11.06;94.31;99421.69;5068893;28;20453;-68
2023/12/25 07:47:13;;;;;;;1.90;0.70;;;;;;;11.09;92.96;99437.28;5069817;28;20523;-69
2023/12/25 07:49:40;;;;;;;1.60;0.40;;;;;;;11.10;93.33;99436.16;5071430;28;20924;-69
2023/12/25 07:52:08;;;;;;;1.70;0.43;;;;;;;11.09;92.71;99448.13;5070375;28;20528;-69
2023/12/25 07:54:35;;;;;;;2.17;0.87;;;;;;;11.03;92.93;99444.03;5072790;28;20489;-68
2023/12/25 07:57:01;;;;;;;1.60;0.47;;;;;;;11.04;92.17;99456.47;5069795;28;20517;-68
2023/12/25 07:59:28;;;;;;;1.77;0.47;;;;;;;11.02;92.78;99472.22;5085375;28;20471;-68
2023/12/25 08:01:55;;;;;;;1.60;0.50;;;;;;;11.02;91.81;99492.03;5070688;28;20564;-69
2023/12/25 08:04:21;;;;;;;1.70;0.47;;;;;;;11.06;90.28;99482.09;5070259;28;20969;-69
2023/12/25 08:06:48;;;;;;;1.70;0.50;;;;;;;11.05;89.15;99515.72;5070212;28;20473;-67
2023/12/25 08:09:16;;;;;;;2.40;0.63;;;;;;;11.13;87.19;99505.16;5076219;28;20461;-67
2023/12/25 08:11:42;;;;;;;2.00;0.50;;;;;;;11.09;87.14;99499.59;5075271;28;20816;-66
2023/12/25 08:14:09;;;;;;;3.60;0.77;;;;;;;11.07;87.83;99499.16;5073270;28;20553;-66
2023/12/25 08:16:36;;;;;;;1.60;0.40;;;;;;;11.06;86.54;99506.47;5071867;28;20436;-67
2023/12/25 08:19:03;;;;;;;2.10;0.50;;;;;;;11.12;84.13;99507.09;5071437;28;20431;-67
2023/12/25 08:21:30;;;;;;;3.73;0.57;;;;;;;11.18;84.08;99505.75;5074597;28;20433;-68
2023/12/25 08:23:56;;;;;;;1.60;0.50;;;;;;;11.23;84.11;99512.88;5079081;28;20544;-67
2023/12/25 08:26:24;;;;;;;1.70;0.40;;;;;;;11.24;83.57;99507.13;5073851;28;20451;-67
2023/12/25 08:28:52;;;;;;;1.80;0.47;;;;;;;11.16;84.49;99512.66;5078307;28;20437;-68
2023/12/25 08:31:19;;;;;;;1.60;0.40;;;;;;;11.16;84.83;99528.91;5074179;28;20433;-68
2023/12/25 08:33:46;;;;;;;1.60;0.40;;;;;;;11.12;84.83;99517.94;5075205;28;20471;-68
2023/12/25 08:36:13;;;;;;;2.33;0.90;;;;;;;11.05;86.85;99523.06;5073673;28;20465;-68
2023/12/25 08:38:39;;;;;;;1.80;0.50;;;;;;;11.05;87.48;99523.84;5069259;28;20456;-68
2023/12/25 08:41:06;;;;;;;1.60;0.40;;;;;;;11.11;86.86;99543.41;5074710;28;20431;-68
2023/12/25 08:43:34;;;;;;;1.50;0.40;;;;;;;11.16;86.73;99534.31;5069830;28;20489;-68
2023/12/25 08:46:01;;;;;;;1.70;0.43;;;;;;;11.09;88.58;99540.25;5071273;28;20507;-68
2023/12/25 08:48:27;;;;;;;1.50;0.40;;;;;;;11.08;87.91;99542.19;5070359;28;20516;-68
2023/12/25 08:50:54;;;;;;;2.23;0.53;;;;;;;11.04;89.70;99557.50;5074519;28;20933;-68
2023/12/25 08:53:20;;;;;;;1.60;0.40;;;;;;;11.06;88.94;99584.25;5075674;28;20425;-67
2023/12/25 08:55:47;;;;;;;2.00;0.70;;;;;;;10.99;89.85;99560.41;5076518;28;20487;-67
2023/12/25 08:58:14;;;;;;;2.73;0.60;;;;;;;11.00;89.64;99575.53;5076379;28;20437;-69
2023/12/25 09:00:42;;;;;;;9.60;0.80;;;;;;;11.04;89.08;99572.97;5075472;28;20483;-70
2023/12/25 09:03:08;;;;;;;1.70;0.50;;;;;;;11.09;88.82;99570.06;5074778;28;20478;-69
2023/12/25 09:05:35;;;;;;;1.50;0.40;;;;;;;11.07;89.71;99577.75;5065472;28;21023;-69
2023/12/25 09:08:02;;;;;;;1.57;0.47;;;;;;;11.02;89.65;99586.88;5070658;28;20597;-69
2023/12/25 09:10:28;;;;;;;1.60;0.40;;;;;;;11.06;88.76;99590.47;5070397;28;21029;-68
2023/12/25 09:12:55;;;;;;;2.57;0.60;;;;;;;11.11;87.85;99592.19;5064217;28;20430;-69
2023/12/25 09:15:22;;;;;;;1.57;0.40;;;;;;;11.08;87.75;99609.94;5071586;28;20463;-68
2023/12/25 09:17:50;;;;;;;2.10;0.50;;;;;;;11.09;86.76;99613.44;5071755;28;20994;-68
2023/12/25 09:20:17;;;;;;;2.67;0.67;;;;;;;11.06;86.68;99606.75;5076517;28;20469;-67
2023/12/25 09:22:44;;;;;;;2.10;0.57;;;;;;;11.10;86.77;99599.53;5072579;28;20478;-67
2023/12/25 09:25:11;;;;;;;3.00;0.83;;;;;;;11.08;86.31;99606.44;5076082;28;20484;-68
2023/12/25 09:27:37;;;;;;;2.37;0.73;;;;;;;11.10;86.41;99604.16;5074322;28;20483;-68
2023/12/25 09:30:05;;;;;;;1.90;0.57;;;;;;;11.10;86.35;99602.25;5077049;28;20434;-68
2023/12/25 09:32:32;;;;;;;3.70;1.10;;;;;;;11.08;87.03;99590.97;5074786;28;20520;-68
2023/12/25 09:35:00;;;;;;;1.60;0.40;;;;;;;11.17;86.63;99614.50;5074958;28;20523;-68
2023/12/25 09:37:27;;;;;;;2.83;0.80;;;;;;;11.10;87.89;99593.31;5065730;28;20422;-68
2023/12/25 09:39:54;;;;;;;1.57;0.40;;;;;;;11.09;87.67;99595.25;5075953;28;20473;-68
2023/12/25 09:42:21;;;;;;;4.57;0.70;;;;;;;11.16;88.00;99588.53;5081077;28;20558;-68
2023/12/25 09:44:50;;;;;;;1.87;0.63;;;;;;;11.11;87.88;99613.88;5072915;28;20465;-68
2023/12/25 09:47:18;;;;;;;1.50;0.40;;;;;;;11.24;87.37;99612.06;5062142;28;20529;-68
2023/12/25 09:49:46;;;;;;;1.60;0.40;;;;;;;11.32;87.70;99608.50;5064936;28;20943;-68
2023/12/25 09:52:17;;;;;;;1.60;0.40;;;;;;;11.33;87.65;99610.91;5071045;28;20469;-68
2023/12/25 09:54:44;;;;;;;1.80;0.50;;;;;;;11.30;87.91;99616.97;5063852;28;20449;-68
2023/12/25 09:57:12;;;;;;;4.50;0.70;;;;;;;11.29;88.11;99620.00;5070429;28;20450;-68
2023/12/25 09:59:41;;;;;;;1.70;0.50;;;;;;;11.30;88.13;99627.81;5064811;28;20438;-69
2023/12/25 10:02:10;;;;;;;1.70;0.43;;;;;;;11.29;87.35;99626.22;5064028;28;20430;-71
2023/12/25 10:04:38;;;;;;;2.07;0.60;;;;;;;11.21;89.08;99618.94;5070308;28;20453;-69
2023/12/25 10:07:05;;;;;;;2.33;0.67;;;;;;;11.19;88.42;99625.78;5066265;28;20481;-68
2023/12/25 10:09:33;;;;;;;1.80;0.60;;;;;;;11.25;87.55;99617.16;5064401;28;20473;-67
2023/12/25 10:12:00;;;;;;;2.17;0.97;;;;;;;11.28;87.94;99630.03;5071530;28;20444;-68
2023/12/25 10:14:29;;;;;;;3.10;0.70;;;;;;;11.32;86.82;99620.13;5065563;28;20441;-68
2023/12/25 10:16:57;;;;;;;1.70;0.57;;;;;;;11.27;87.67;99620.31;5075058;28;20776;-67
2023/12/25 10:19:24;;;;;;;1.70;0.60;;;;;;;11.33;87.18;99626.34;5072580;28;20437;-67
2023/12/25 10:21:52;;;;;;;1.57;0.40;;;;;;;11.36;86.92;99631.91;5060458;28;20449;-67
2023/12/25 10:24:19;;;;;;;1.83;0.60;;;;;;;11.32;87.01;99628.25;5065242;28;20508;-67
2023/12/25 10:26:47;;;;;;;2.23;0.60;;;;;;;11.31;88.05;99642.16;5065329;28;20444;-68
2023/12/25 10:29:14;;;;;;;1.67;0.50;;;;;;;11.36;87.10;99640.03;5057835;28;20466;-68
2023/12/25 10:31:43;;;;;;;2.07;0.50;;;;;;;11.24;88.30;99639.94;5058424;28;20941;-68
2023/12/25 10:34:10;;;;;;;1.93;0.50;;;;;;;11.34;87.44;99644.22;5070362;28;20457;-69
2023/12/25 10:36:38;;;;;;;2.00;0.70;;;;;;;11.30;87.24;99643.28;5071000;28;20438;-66
2023/12/25 10:39:05;;;;;;;3.67;0.60;;;;;;;11.34;87.34;99652.34;5060314;28;20772;-68
2023/12/25 10:41:35;;;;;;;6.30;0.40;;;;;;;11.43;85.01;99653.09;5055613;28;20438;-67
2023/12/25 10:44:05;;;;;;;1.60;0.40;;;;;;;11.45;86.00;99666.31;5069635;28;20878;-66
2023/12/25 10:46:34;;;;;;;1.80;0.40;;;;;;;11.47;85.82;99656.72;5067252;28;20441;-66
2023/12/25 10:49:03;;;;;;;2.80;0.53;;;;;;;11.48;86.35;99654.81;5062312;28;20471;-66
2023/12/25 10:51:33;;;;;;;10.40;0.73;;;;;;;11.50;86.25;99650.63;5059758;28;20504;-66
2023/12/25 10:54:01;;;;;;;1.70;0.60;;;;;;;11.48;86.10;99654.81;5074084;28;20478;-66
2023/12/25 10:56:28;;;;;;;1.80;0.53;;;;;;;11.45;86.62;99656.25;5078272;28;20761;-65
2023/12/25 10:59:02;;;;;;;3.40;1.13;;;;;;;11.44;86.68;99656.59;5069846;28;20463;-65
2023/12/25 11:01:31;;;;;;;1.80;0.60;;;;;;;11.46;86.02;99667.88;5084697;28;20882;-65
2023/12/25 11:03:58;;;;;;;1.70;0.50;;;;;;;11.49;86.49;99657.19;5073887;28;20487;-67
2023/12/25 11:06:26;;;;;;;1.70;0.50;;;;;;;11.51;86.10;99656.84;5063764;28;20481;-66
2023/12/25 11:08:53;;;;;;;1.80;0.60;;;;;;;11.54;84.99;99665.13;5076179;28;20466;-69
2023/12/25 11:11:23;;;;;;;2.03;0.57;;;;;;;11.61;85.28;99675.44;5069281;28;20528;-71
2023/12/25 11:13:50;;;;;;;2.00;0.60;;;;;;;11.61;85.32;99670.03;5074516;28;20536;-66
2023/12/25 11:16:17;;;;;;;2.00;0.70;;;;;;;11.58;85.66;99685.03;5070891;28;20470;-67
2023/12/25 11:18:46;;;;;;;1.70;0.50;;;;;;;11.63;84.03;99681.31;5056184;28;20509;-65
2023/12/25 11:21:18;;;;;;;3.13;0.60;;;;;;;11.59;83.88;99683.09;5069125;28;20528;-66
2023/12/25 11:23:46;;;;;;;1.60;0.40;;;;;;;11.59;84.91;99674.97;5071455;28;20556;-65
2023/12/25 11:26:16;;;;;;;1.60;0.40;;;;;;;11.59;85.16;99674.97;5071418;28;20441;-65
2023/12/25 11:28:44;;;;;;;2.10;0.80;;;;;;;11.56;86.12;99683.78;5069587;28;20778;-65